Ballina/Mayo, Ireland
Current Conditions -  °F | °C
As of 3:00 PM on Saturday 25 Oct 2014 (Local Time) from EIKN Reporting Station
Rain Showers Rain Showers  
Wind Chill: 50°   Ceiling: 2200
Heat Index: 50°   Visibility: 6mi
Dew Point: 45°   Wind: 21mph
Humidity: 82%   Direction: 230°SW
Pressure: 29.8"   Gusts: 43mph
Location:  54.12°N, 9.16°W
Report Text: EIKN 251500Z 23018G37KT 200V260 9999 -SHRA BKN022 BKN029 10/07 Q1009 NOSIG
Loading
Personal Weather Stations






























Interactive Weather Map
Tropical Storm Tracking
New forecast layout! Learn more

10-Day Weather Forecast

Advertisements
Track Severe Weather on mobile